Kusadasi, Turkey

1:34 PM EEST on September 28, 2016 (GMT +0300)
GURMAT EFELER JES | | Change Station

Elev 154 ft 37.86 °N, 27.61 °E | Updated 9 minutes ago

Clear
Clear
77.5 °F
Feels Like 78 °F
N
9.0
Wind Variable Wind from SE
Gusts 11.0 mph

Today
High -- | Low -- °F
--% Chance of Precip.
Yesterday
High -- | Low -- °F
Precip. -- in
Pressure 30.18 in
Visibility -9999.0 miles
Clouds
Heat Index 78 °F
Dew Point 51 °F
Humidity 39%
Rainfall 0.00 in
Snow Depth Not available.
7:04 AM 6:58 PM
Waning Crescent, 6% visible
METAR LTBJ 281020Z 36018KT 330V030 CAVOK 24/08 Q1022 NOSIG RMK RWY16 35015KT 310V010
Pressure 30.18 in
Visibility -9999.0 miles
Clouds
Heat Index 78 °F
Dew Point 51 °F
Humidity 39%
Rainfall 0.00 in
Snow Depth Not available.
7:04 AM 6:58 PM
Waning Crescent, 6% visible
METAR LTBJ 281020Z 36018KT 330V030 CAVOK 24/08 Q1022 NOSIG RMK RWY16 35015KT 310V010

10-Day Weather Forecast

×

Almanac

Astronomy

Sep. 28, 2016 Rise Set
Actual Time
Civil Twilight
Nautical Twilight
Astronomical Twilight
Moon
Length of Visible Light
Length of Day
Tomorrow will be .
, % of the Moon is Illuminated

Today's Extremes

Country Highs Country Lows

Community

WunderPhotos

Upload Photos

1,942,232 photos uploaded!

WunderBlog® & News

Nearby

Air Quality

  Air Quality AQ Index Pollutant
Not available.

Snow Depth

Station Depth Elevation

Earthquake Activity

City Distance Mag. Time & Date
Minimum magnitude displayed is 2.5.

Coastal Water Temperatures

Place Temperature

Stations

Nearby Weather Stations

Station Location Temp. Windchill Dew Point Humidity Wind Precip. Elev Updated Type